sensor_id;sensor_type;location;lat;lon;timestamp;pressure;altitude;pressure_sealevel;temperature;humidity
5703;BME280;2876;51.738;10.050;2023-04-06T00:03:09;99636.72;;;1.15;75.42
5703;BME280;2876;51.738;10.050;2023-04-06T00:09:11;99631.88;;;1.20;75.84
5703;BME280;2876;51.738;10.050;2023-04-06T00:15:13;99626.44;;;1.22;75.34
5703;BME280;2876;51.738;10.050;2023-04-06T00:21:15;99624.16;;;1.08;75.91
5703;BME280;2876;51.738;10.050;2023-04-06T00:27:17;99626.94;;;1.06;76.22
5703;BME280;2876;51.738;10.050;2023-04-06T00:33:19;99607.69;;;0.94;76.56
5703;BME280;2876;51.738;10.050;2023-04-06T00:39:21;99604.22;;;0.94;76.53
5703;BME280;2876;51.738;10.050;2023-04-06T00:45:23;99587.56;;;0.72;77.95
5703;BME280;2876;51.738;10.050;2023-04-06T00:51:25;99589.56;;;0.80;78.29
5703;BME280;2876;51.738;10.050;2023-04-06T00:57:28;99585.53;;;0.55;78.73
5703;BME280;2876;51.738;10.050;2023-04-06T01:03:30;99578.06;;;0.39;79.84
5703;BME280;2876;51.738;10.050;2023-04-06T01:09:32;99576.69;;;0.45;79.22
5703;BME280;2876;51.738;10.050;2023-04-06T01:15:35;99575.00;;;0.55;78.72
5703;BME280;2876;51.738;10.050;2023-04-06T01:21:41;99562.03;;;0.31;79.99
5703;BME280;2876;51.738;10.050;2023-04-06T01:27:43;99557.66;;;0.20;80.43
5703;BME280;2876;51.738;10.050;2023-04-06T01:33:45;99553.84;;;0.13;80.64
5703;BME280;2876;51.738;10.050;2023-04-06T01:39:48;99550.34;;;0.24;80.11
5703;BME280;2876;51.738;10.050;2023-04-06T01:45:50;99550.00;;;0.17;80.61
5703;BME280;2876;51.738;10.050;2023-04-06T01:51:52;99542.22;;;0.16;79.83
5703;BME280;2876;51.738;10.050;2023-04-06T01:57:55;99535.50;;;0.23;79.83
5703;BME280;2876;51.738;10.050;2023-04-06T02:03:57;99548.78;;;0.21;79.80
5703;BME280;2876;51.738;10.050;2023-04-06T02:09:59;99548.19;;;0.18;79.50
5703;BME280;2876;51.738;10.050;2023-04-06T02:16:01;99540.94;;;0.10;79.83
5703;BME280;2876;51.738;10.050;2023-04-06T02:22:04;99544.34;;;0.01;79.98
5703;BME280;2876;51.738;10.050;2023-04-06T02:28:06;99543.47;;;-0.20;79.86
5703;BME280;2876;51.738;10.050;2023-04-06T02:34:08;99538.25;;;-0.32;80.09
5703;BME280;2876;51.738;10.050;2023-04-06T02:40:14;99543.84;;;-0.25;80.67
5703;BME280;2876;51.738;10.050;2023-04-06T02:46:16;99534.00;;;-0.23;81.35
5703;BME280;2876;51.738;10.050;2023-04-06T02:52:18;99532.69;;;-0.17;81.12
5703;BME280;2876;51.738;10.050;2023-04-06T02:58:20;99530.66;;;-0.25;81.96
5703;BME280;2876;51.738;10.050;2023-04-06T03:04:22;99529.31;;;-0.19;81.16
5703;BME280;2876;51.738;10.050;2023-04-06T03:10:27;99527.13;;;-0.35;80.62
5703;BME280;2876;51.738;10.050;2023-04-06T03:16:28;99523.91;;;-0.39;80.92
5703;BME280;2876;51.738;10.050;2023-04-06T03:22:31;99532.41;;;-0.35;82.33
5703;BME280;2876;51.738;10.050;2023-04-06T03:28:33;99526.44;;;-0.48;84.02
5703;BME280;2876;51.738;10.050;2023-04-06T03:34:35;99526.47;;;-0.60;84.25
5703;BME280;2876;51.738;10.050;2023-04-06T03:40:37;99524.88;;;-0.51;83.59
5703;BME280;2876;51.738;10.050;2023-04-06T03:46:39;99528.72;;;-0.55;83.38
5703;BME280;2876;51.738;10.050;2023-04-06T03:52:41;99530.16;;;-0.51;83.37
5703;BME280;2876;51.738;10.050;2023-04-06T03:58:43;99534.66;;;-0.42;83.14
5703;BME280;2876;51.738;10.050;2023-04-06T04:04:46;99527.06;;;-0.24;82.44
5703;BME280;2876;51.738;10.050;2023-04-06T04:10:48;99533.16;;;-0.12;81.64
5703;BME280;2876;51.738;10.050;2023-04-06T04:16:51;99548.06;;;-0.34;82.72
5703;BME280;2876;51.738;10.050;2023-04-06T04:22:52;99547.84;;;-0.42;82.51
5703;BME280;2876;51.738;10.050;2023-04-06T04:28:54;99547.16;;;-0.44;82.50
5703;BME280;2876;51.738;10.050;2023-04-06T04:34:57;99550.38;;;-0.40;82.07
5703;BME280;2876;51.738;10.050;2023-04-06T04:40:58;99545.66;;;-0.37;82.15
5703;BME280;2876;51.738;10.050;2023-04-06T04:47:01;99557.41;;;-0.30;81.34
5703;BME280;2876;51.738;10.050;2023-04-06T04:53:03;99555.44;;;-0.16;80.35
5703;BME280;2876;51.738;10.050;2023-04-06T04:59:07;99556.19;;;-0.26;81.00
5703;BME280;2876;51.738;10.050;2023-04-06T05:05:09;99554.00;;;-0.20;80.91
5703;BME280;2876;51.738;10.050;2023-04-06T05:11:12;99563.25;;;-0.26;81.40
5703;BME280;2876;51.738;10.050;2023-04-06T05:17:14;99560.34;;;-0.23;81.38
5703;BME280;2876;51.738;10.050;2023-04-06T05:23:16;99559.19;;;0.02;81.25
5703;BME280;2876;51.738;10.050;2023-04-06T05:29:18;99567.03;;;0.13;80.62
5703;BME280;2876;51.738;10.050;2023-04-06T05:35:21;99550.94;;;0.28;79.55
5703;BME280;2876;51.738;10.050;2023-04-06T05:41:24;99554.31;;;0.39;79.69
5703;BME280;2876;51.738;10.050;2023-04-06T05:47:26;99558.81;;;0.48;78.99
5703;BME280;2876;51.738;10.050;2023-04-06T05:53:28;99564.16;;;0.58;79.31
5703;BME280;2876;51.738;10.050;2023-04-06T05:59:31;99562.03;;;0.73;78.32
5703;BME280;2876;51.738;10.050;2023-04-06T06:05:34;99553.31;;;0.82;77.97
5703;BME280;2876;51.738;10.050;2023-04-06T06:11:36;99556.19;;;1.00;77.82
5703;BME280;2876;51.738;10.050;2023-04-06T06:17:39;99555.44;;;1.29;77.84
5703;BME280;2876;51.738;10.050;2023-04-06T06:23:42;99555.88;;;1.43;77.52
5703;BME280;2876;51.738;10.050;2023-04-06T06:29:44;99563.19;;;1.70;77.51
5703;BME280;2876;51.738;10.050;2023-04-06T06:35:46;99561.50;;;2.08;76.61
5703;BME280;2876;51.738;10.050;2023-04-06T06:41:48;99558.03;;;2.46;75.41
5703;BME280;2876;51.738;10.050;2023-04-06T06:47:51;99565.31;;;3.46;72.56
5703;BME280;2876;51.738;10.050;2023-04-06T06:53:56;99560.56;;;8.08;53.78
5703;BME280;2876;51.738;10.050;2023-04-06T06:59:58;99570.59;;;12.16;41.42
5703;BME280;2876;51.738;10.050;2023-04-06T07:06:01;99564.56;;;14.86;37.89
5703;BME280;2876;51.738;10.050;2023-04-06T07:12:03;99570.13;;;16.32;34.77
5703;BME280;2876;51.738;10.050;2023-04-06T07:18:05;99561.69;;;14.81;35.49
5703;BME280;2876;51.738;10.050;2023-04-06T07:24:07;99565.66;;;11.72;41.24
5703;BME280;2876;51.738;10.050;2023-04-06T07:30:10;99568.31;;;9.01;45.65
5703;BME280;2876;51.738;10.050;2023-04-06T07:36:12;99557.00;;;8.61;49.30
5703;BME280;2876;51.738;10.050;2023-04-06T07:42:14;99555.06;;;8.55;50.29
5703;BME280;2876;51.738;10.050;2023-04-06T07:48:16;99554.00;;;8.79;49.71
5703;BME280;2876;51.738;10.050;2023-04-06T07:54:18;99548.22;;;8.91;49.86
5703;BME280;2876;51.738;10.050;2023-04-06T08:00:21;99548.41;;;9.04;49.37
5703;BME280;2876;51.738;10.050;2023-04-06T08:06:23;99547.56;;;9.33;48.26
5703;BME280;2876;51.738;10.050;2023-04-06T08:12:25;99547.25;;;9.43;48.68
5703;BME280;2876;51.738;10.050;2023-04-06T08:18:27;99545.53;;;10.07;46.97
5703;BME280;2876;51.738;10.050;2023-04-06T08:24:31;99546.25;;;10.37;46.99
5703;BME280;2876;51.738;10.050;2023-04-06T08:30:34;99544.88;;;10.70;46.44
5703;BME280;2876;51.738;10.050;2023-04-06T08:36:36;99548.22;;;11.06;43.62
5703;BME280;2876;51.738;10.050;2023-04-06T08:42:44;99540.00;;;11.14;43.58
5703;BME280;2876;51.738;10.050;2023-04-06T08:48:51;99548.31;;;11.26;43.90
5703;BME280;2876;51.738;10.050;2023-04-06T08:54:53;99543.47;;;11.98;43.52
5703;BME280;2876;51.738;10.050;2023-04-06T09:00:55;99535.03;;;12.80;41.99
5703;BME280;2876;51.738;10.050;2023-04-06T09:06:57;99540.59;;;13.05;40.63
5703;BME280;2876;51.738;10.050;2023-04-06T09:13:05;99543.75;;;14.05;38.70
5703;BME280;2876;51.738;10.050;2023-04-06T09:19:08;99542.91;;;14.68;36.75
5703;BME280;2876;51.738;10.050;2023-04-06T09:25:19;99544.94;;;15.34;38.00
5703;BME280;2876;51.738;10.050;2023-04-06T09:31:24;99541.38;;;17.08;34.30
5703;BME280;2876;51.738;10.050;2023-04-06T09:37:28;99542.00;;;18.02;33.45
5703;BME280;2876;51.738;10.050;2023-04-06T09:43:30;99542.53;;;18.95;31.92
5703;BME280;2876;51.738;10.050;2023-04-06T09:49:33;99537.19;;;20.10;29.21
5703;BME280;2876;51.738;10.050;2023-04-06T09:55:42;99534.06;;;20.23;28.72
5703;BME280;2876;51.738;10.050;2023-04-06T10:01:46;99539.19;;;21.73;27.71
5703;BME280;2876;51.738;10.050;2023-04-06T10:07:51;99537.28;;;23.73;25.93
5703;BME280;2876;51.738;10.050;2023-04-06T10:14:01;99530.88;;;25.29;24.15
5703;BME280;2876;51.738;10.050;2023-04-06T10:20:18;99515.22;;;25.78;22.69
5703;BME280;2876;51.738;10.050;2023-04-06T10:26:23;99527.00;;;27.19;21.19
5703;BME280;2876;51.738;10.050;2023-04-06T10:32:38;99517.50;;;27.94;19.78
5703;BME280;2876;51.738;10.050;2023-04-06T10:38:41;99510.19;;;27.35;19.26
5703;BME280;2876;51.738;10.050;2023-04-06T10:44:44;99509.16;;;27.17;19.91
5703;BME280;2876;51.738;10.050;2023-04-06T10:50:52;99495.88;;;27.33;19.75
5703;BME280;2876;51.738;10.050;2023-04-06T10:56:54;99494.09;;;28.73;17.70
5703;BME280;2876;51.738;10.050;2023-04-06T11:03:01;99482.00;;;28.91;16.82
5703;BME280;2876;51.738;10.050;2023-04-06T11:09:03;99476.91;;;28.31;16.91
5703;BME280;2876;51.738;10.050;2023-04-06T11:15:06;99477.03;;;28.71;16.94
5703;BME280;2876;51.738;10.050;2023-04-06T11:21:08;99486.09;;;29.33;17.45
5703;BME280;2876;51.738;10.050;2023-04-06T11:27:10;99482.00;;;29.62;17.31
5703;BME280;2876;51.738;10.050;2023-04-06T11:33:21;99459.72;;;28.12;18.18
5703;BME280;2876;51.738;10.050;2023-04-06T11:39:27;99460.44;;;28.40;18.17
5703;BME280;2876;51.738;10.050;2023-04-06T11:45:42;99462.16;;;29.12;16.92
5703;BME280;2876;51.738;10.050;2023-04-06T11:51:47;99449.34;;;28.93;17.55
5703;BME280;2876;51.738;10.050;2023-04-06T11:57:49;99451.28;;;29.24;17.47
5703;BME280;2876;51.738;10.050;2023-04-06T12:03:53;99444.16;;;28.92;18.65
5703;BME280;2876;51.738;10.050;2023-04-06T12:09:55;99435.97;;;28.78;17.05
5703;BME280;2876;51.738;10.050;2023-04-06T12:15:57;99423.50;;;27.54;17.60
5703;BME280;2876;51.738;10.050;2023-04-06T12:21:59;99424.03;;;28.15;18.33
5703;BME280;2876;51.738;10.050;2023-04-06T12:28:01;99402.94;;;27.74;17.00
5703;BME280;2876;51.738;10.050;2023-04-06T12:34:04;99409.59;;;27.10;19.13
5703;BME280;2876;51.738;10.050;2023-04-06T12:40:07;99403.59;;;26.47;19.23
5703;BME280;2876;51.738;10.050;2023-04-06T12:46:10;99405.16;;;26.21;19.72
5703;BME280;2876;51.738;10.050;2023-04-06T12:52:12;99399.88;;;26.05;19.43
5703;BME280;2876;51.738;10.050;2023-04-06T12:58:14;99386.25;;;25.63;20.36
5703;BME280;2876;51.738;10.050;2023-04-06T13:04:16;99384.22;;;27.49;18.87
5703;BME280;2876;51.738;10.050;2023-04-06T13:10:18;99382.31;;;26.20;18.91
5703;BME280;2876;51.738;10.050;2023-04-06T13:16:20;99375.66;;;27.87;19.03
5703;BME280;2876;51.738;10.050;2023-04-06T13:22:23;99361.50;;;26.47;19.47
5703;BME280;2876;51.738;10.050;2023-04-06T13:28:25;99367.59;;;28.44;18.40
5703;BME280;2876;51.738;10.050;2023-04-06T13:34:28;99351.97;;;26.12;18.58
5703;BME280;2876;51.738;10.050;2023-04-06T13:40:30;99345.25;;;27.42;18.20
5703;BME280;2876;51.738;10.050;2023-04-06T13:46:32;99351.94;;;28.62;19.39
5703;BME280;2876;51.738;10.050;2023-04-06T13:52:35;99349.31;;;28.96;18.66
5703;BME280;2876;51.738;10.050;2023-04-06T13:58:37;99345.91;;;30.29;17.91
5703;BME280;2876;51.738;10.050;2023-04-06T14:04:39;99337.94;;;28.58;18.79
5703;BME280;2876;51.738;10.050;2023-04-06T14:10:41;99330.84;;;29.31;17.54
5703;BME280;2876;51.738;10.050;2023-04-06T14:16:44;99331.16;;;29.30;18.04
5703;BME280;2876;51.738;10.050;2023-04-06T14:22:46;99325.03;;;26.83;18.33
5703;BME280;2876;51.738;10.050;2023-04-06T14:28:50;99314.75;;;24.44;19.89
5703;BME280;2876;51.738;10.050;2023-04-06T14:34:53;99308.88;;;25.55;20.80
5703;BME280;2876;51.738;10.050;2023-04-06T14:40:55;99312.34;;;28.04;19.37
5703;BME280;2876;51.738;10.050;2023-04-06T14:46:57;99311.78;;;29.04;16.93
5703;BME280;2876;51.738;10.050;2023-04-06T14:52:59;99315.00;;;28.97;17.60
5703;BME280;2876;51.738;10.050;2023-04-06T14:59:02;99315.97;;;30.23;17.19
5703;BME280;2876;51.738;10.050;2023-04-06T15:05:05;99296.13;;;28.11;17.93
5703;BME280;2876;51.738;10.050;2023-04-06T15:11:07;99287.97;;;25.22;19.27
5703;BME280;2876;51.738;10.050;2023-04-06T15:17:09;99285.88;;;24.23;20.19
5703;BME280;2876;51.738;10.050;2023-04-06T15:23:11;99290.09;;;25.95;20.13
5703;BME280;2876;51.738;10.050;2023-04-06T15:29:13;99288.13;;;25.82;19.15
5703;BME280;2876;51.738;10.050;2023-04-06T15:35:15;99284.72;;;22.82;21.46
5703;BME280;2876;51.738;10.050;2023-04-06T15:41:17;99289.00;;;23.82;21.84
5703;BME280;2876;51.738;10.050;2023-04-06T15:47:19;99280.66;;;23.63;22.74
5703;BME280;2876;51.738;10.050;2023-04-06T15:53:21;99277.78;;;26.06;20.16
5703;BME280;2876;51.738;10.050;2023-04-06T15:59:23;99281.78;;;26.42;20.37
5703;BME280;2876;51.738;10.050;2023-04-06T16:05:27;99285.47;;;26.65;19.20
5703;BME280;2876;51.738;10.050;2023-04-06T16:11:31;99283.94;;;27.36;18.71
5703;BME280;2876;51.738;10.050;2023-04-06T16:17:33;99286.22;;;27.20;19.18
5703;BME280;2876;51.738;10.050;2023-04-06T16:23:35;99281.28;;;26.95;20.23
5703;BME280;2876;51.738;10.050;2023-04-06T16:29:37;99285.94;;;27.22;20.21
5703;BME280;2876;51.738;10.050;2023-04-06T16:35:46;99279.31;;;27.90;19.98
5703;BME280;2876;51.738;10.050;2023-04-06T16:41:48;99272.09;;;26.03;20.98
5703;BME280;2876;51.738;10.050;2023-04-06T16:47:50;99284.63;;;24.34;23.38
5703;BME280;2876;51.738;10.050;2023-04-06T16:53:53;99280.88;;;24.54;21.74
5703;BME280;2876;51.738;10.050;2023-04-06T16:59:55;99275.50;;;23.91;21.79
5703;BME280;2876;51.738;10.050;2023-04-06T17:05:57;99266.09;;;22.04;22.83
5703;BME280;2876;51.738;10.050;2023-04-06T17:11:59;99271.41;;;20.14;27.67
5703;BME280;2876;51.738;10.050;2023-04-06T17:18:02;99272.84;;;19.84;29.19
5703;BME280;2876;51.738;10.050;2023-04-06T17:24:05;99270.72;;;19.59;28.46
5703;BME280;2876;51.738;10.050;2023-04-06T17:30:12;99274.63;;;17.49;33.44
5703;BME280;2876;51.738;10.050;2023-04-06T17:36:16;99273.06;;;15.45;37.74
5703;BME280;2876;51.738;10.050;2023-04-06T17:42:21;99275.75;;;14.00;41.50
5703;BME280;2876;51.738;10.050;2023-04-06T17:48:24;99278.97;;;12.70;44.33
5703;BME280;2876;51.738;10.050;2023-04-06T17:54:27;99282.09;;;12.09;46.31
5703;BME280;2876;51.738;10.050;2023-04-06T18:00:29;99281.28;;;11.42;49.20
5703;BME280;2876;51.738;10.050;2023-04-06T18:06:31;99285.72;;;10.75;50.65
5703;BME280;2876;51.738;10.050;2023-04-06T18:12:33;99284.97;;;10.05;52.99
5703;BME280;2876;51.738;10.050;2023-04-06T18:18:36;99285.06;;;9.62;54.57
5703;BME280;2876;51.738;10.050;2023-04-06T18:24:39;99292.25;;;9.12;56.11
5703;BME280;2876;51.738;10.050;2023-04-06T18:30:44;99292.38;;;8.83;55.77
5703;BME280;2876;51.738;10.050;2023-04-06T18:36:46;99296.38;;;8.72;56.92
5703;BME280;2876;51.738;10.050;2023-04-06T18:42:48;99299.22;;;8.71;56.54
5703;BME280;2876;51.738;10.050;2023-04-06T18:48:50;99306.63;;;8.54;57.47
5703;BME280;2876;51.738;10.050;2023-04-06T18:54:52;99309.78;;;8.43;56.04
5703;BME280;2876;51.738;10.050;2023-04-06T19:00:54;99313.47;;;8.56;52.82
5703;BME280;2876;51.738;10.050;2023-04-06T19:07:00;99315.47;;;9.05;51.13
5703;BME280;2876;51.738;10.050;2023-04-06T19:13:02;99326.31;;;9.19;52.26
5703;BME280;2876;51.738;10.050;2023-04-06T19:19:04;99322.38;;;8.78;54.86
5703;BME280;2876;51.738;10.050;2023-04-06T19:25:07;99325.28;;;8.47;56.71
5703;BME280;2876;51.738;10.050;2023-04-06T19:31:11;99333.56;;;8.52;57.60
5703;BME280;2876;51.738;10.050;2023-04-06T19:37:14;99332.06;;;8.05;59.06
5703;BME280;2876;51.738;10.050;2023-04-06T19:43:15;99335.75;;;8.04;56.67
5703;BME280;2876;51.738;10.050;2023-04-06T19:49:18;99336.50;;;8.13;55.71
5703;BME280;2876;51.738;10.050;2023-04-06T19:55:20;99336.50;;;8.28;54.77
5703;BME280;2876;51.738;10.050;2023-04-06T20:01:24;99329.69;;;8.25;54.55
5703;BME280;2876;51.738;10.050;2023-04-06T20:07:26;99334.66;;;8.13;56.24
5703;BME280;2876;51.738;10.050;2023-04-06T20:13:28;99326.25;;;8.02;56.43
5703;BME280;2876;51.738;10.050;2023-04-06T20:19:31;99327.75;;;8.19;55.31
5703;BME280;2876;51.738;10.050;2023-04-06T20:25:33;99330.41;;;8.19;54.88
5703;BME280;2876;51.738;10.050;2023-04-06T20:31:34;99329.06;;;8.38;53.92
5703;BME280;2876;51.738;10.050;2023-04-06T20:37:37;99330.63;;;8.47;53.83
5703;BME280;2876;51.738;10.050;2023-04-06T20:43:39;99335.22;;;8.09;54.75
5703;BME280;2876;51.738;10.050;2023-04-06T20:49:41;99330.88;;;8.23;54.93
5703;BME280;2876;51.738;10.050;2023-04-06T20:55:43;99336.88;;;7.95;54.98
5703;BME280;2876;51.738;10.050;2023-04-06T21:01:45;99331.38;;;7.74;55.33
5703;BME280;2876;51.738;10.050;2023-04-06T21:07:47;99329.59;;;7.66;54.51
5703;BME280;2876;51.738;10.050;2023-04-06T21:13:49;99328.03;;;7.57;54.77
5703;BME280;2876;51.738;10.050;2023-04-06T21:19:51;99325.00;;;7.60;55.51
5703;BME280;2876;51.738;10.050;2023-04-06T21:25:54;99317.91;;;7.29;57.07
5703;BME280;2876;51.738;10.050;2023-04-06T21:31:58;99318.44;;;7.25;56.75
5703;BME280;2876;51.738;10.050;2023-04-06T21:38:00;99319.63;;;6.99;57.30
5703;BME280;2876;51.738;10.050;2023-04-06T21:44:02;99316.63;;;6.71;59.76
5703;BME280;2876;51.738;10.050;2023-04-06T21:50:05;99314.72;;;6.57;60.41
5703;BME280;2876;51.738;10.050;2023-04-06T21:56:07;99307.16;;;6.29;61.00
5703;BME280;2876;51.738;10.050;2023-04-06T22:02:09;99306.16;;;6.30;61.30
5703;BME280;2876;51.738;10.050;2023-04-06T22:08:11;99316.34;;;6.27;61.23
5703;BME280;2876;51.738;10.050;2023-04-06T22:14:26;99310.31;;;6.33;60.55
5703;BME280;2876;51.738;10.050;2023-04-06T22:20:28;99306.88;;;6.16;60.37
5703;BME280;2876;51.738;10.050;2023-04-06T22:26:30;99308.69;;;6.24;61.10
5703;BME280;2876;51.738;10.050;2023-04-06T22:32:32;99308.91;;;6.14;61.08
5703;BME280;2876;51.738;10.050;2023-04-06T22:38:34;99311.75;;;6.04;61.38
5703;BME280;2876;51.738;10.050;2023-04-06T22:44:36;99318.59;;;5.91;62.02
5703;BME280;2876;51.738;10.050;2023-04-06T22:50:38;99311.94;;;5.95;61.59
5703;BME280;2876;51.738;10.050;2023-04-06T22:56:40;99301.63;;;5.75;62.11
5703;BME280;2876;51.738;10.050;2023-04-06T23:02:42;99316.28;;;5.96;60.76
5703;BME280;2876;51.738;10.050;2023-04-06T23:08:44;99322.28;;;5.65;62.54
5703;BME280;2876;51.738;10.050;2023-04-06T23:14:47;99310.50;;;5.51;63.89
5703;BME280;2876;51.738;10.050;2023-04-06T23:20:49;99319.66;;;5.32;64.08
5703;BME280;2876;51.738;10.050;2023-04-06T23:26:51;99325.28;;;5.05;65.74
5703;BME280;2876;51.738;10.050;2023-04-06T23:32:53;99328.69;;;4.81;66.82
5703;BME280;2876;51.738;10.050;2023-04-06T23:38:55;99325.03;;;4.74;66.88
5703;BME280;2876;51.738;10.050;2023-04-06T23:44:58;99329.66;;;4.72;66.86
5703;BME280;2876;51.738;10.050;2023-04-06T23:51:00;99331.22;;;4.91;65.62
5703;BME280;2876;51.738;10.050;2023-04-06T23:57:02;99323.75;;;4.86;65.23
